Warren, Texas
Current Conditions -  °F | °C
As of 11:55 AM on Saturday 25 Oct 2014 (Local Time) from KJAS Reporting Station
Clear Clear  
Wind Chill: 75°   Ceiling: Unl
Heat Index: 75°   Visibility: 10mi
Dew Point: 55°   Wind: 0mph
Humidity: 50%   Direction: NA
Pressure: 30.21"   Gusts: NA
Location:  30.62°N, 94.41°W
Report Text: KJAS 251655Z AUTO 00000KT 10SM CLR 24/13 A3021 RMK AO2 T02370126
Loading
Personal Weather Stations






























Interactive Weather Map New forecast layout! Learn more

10-Day Weather Forecast

Advertisements
Track Severe Weather on mobile